<?xml version="1.0" encoding="UTF-8" standalone="no" ?>
<gpx xmlns="http://www.topografix.com/GPX/1/1" xmlns:xsi="http://www.w3.org/2001/XMLSchema-instance" xsi:schemaLocation="http://www.topografix.com/GPX/1/1 http://www.topografix.com/GPX/1/1/gpx.xsd" version="1.1" creator="VisuGPX - https://www.visugpx.com">
  <metadata>
    <name>Abbaye de Saint Hilaire - Lacoste</name>
  </metadata>
  <trk>
    <name><![CDATA[Abbaye de Saint Hilaire - Lacoste]]></name>
    <trkseg>
      <trkpt lat="43.82672" lon="5.24721">
        <ele>324</ele>
        <time>2021-02-06T10:35:17+01:00</time>
      </trkpt>
      <trkpt lat="43.82677" lon="5.24752">
        <ele>325.6</ele>
        <time>2021-02-06T10:35:37+01:00</time>
      </trkpt>
      <trkpt lat="43.82683" lon="5.24783">
        <ele>326.8</ele>
        <time>2021-02-06T10:35:56+01:00</time>
      </trkpt>
      <trkpt lat="43.8269" lon="5.24814">
        <ele>327.7</ele>
        <time>2021-02-06T10:36:14+01:00</time>
      </trkpt>
      <trkpt lat="43.82705" lon="5.24837">
        <ele>327.9</ele>
        <time>2021-02-06T10:36:33+01:00</time>
      </trkpt>
      <trkpt lat="43.82719" lon="5.24863">
        <ele>328.7</ele>
        <time>2021-02-06T10:36:54+01:00</time>
      </trkpt>
      <trkpt lat="43.82735" lon="5.24886">
        <ele>329.4</ele>
        <time>2021-02-06T10:37:15+01:00</time>
      </trkpt>
      <trkpt lat="43.82753" lon="5.24906">
        <ele>330.3</ele>
        <time>2021-02-06T10:37:35+01:00</time>
      </trkpt>
      <trkpt lat="43.82775" lon="5.24915">
        <ele>331.5</ele>
        <time>2021-02-06T10:37:53+01:00</time>
      </trkpt>
      <trkpt lat="43.82799" lon="5.24914">
        <ele>332</ele>
        <time>2021-02-06T10:38:12+01:00</time>
      </trkpt>
      <trkpt lat="43.82818" lon="5.24932">
        <ele>333.5</ele>
        <time>2021-02-06T10:38:33+01:00</time>
      </trkpt>
      <trkpt lat="43.82835" lon="5.24953">
        <ele>335.2</ele>
        <time>2021-02-06T10:38:54+01:00</time>
      </trkpt>
      <trkpt lat="43.82845" lon="5.24981">
        <ele>336.9</ele>
        <time>2021-02-06T10:39:13+01:00</time>
      </trkpt>
      <trkpt lat="43.8285" lon="5.25012">
        <ele>338.4</ele>
        <time>2021-02-06T10:39:34+01:00</time>
      </trkpt>
      <trkpt lat="43.82847" lon="5.25044">
        <ele>339.6</ele>
        <time>2021-02-06T10:39:53+01:00</time>
      </trkpt>
      <trkpt lat="43.82849" lon="5.25075">
        <ele>340.7</ele>
        <time>2021-02-06T10:40:15+01:00</time>
      </trkpt>
      <trkpt lat="43.8285" lon="5.25106">
        <ele>341.4</ele>
        <time>2021-02-06T10:40:35+01:00</time>
      </trkpt>
      <trkpt lat="43.82852" lon="5.25137">
        <ele>341.9</ele>
        <time>2021-02-06T10:40:56+01:00</time>
      </trkpt>
      <trkpt lat="43.8285" lon="5.2517">
        <ele>342.5</ele>
        <time>2021-02-06T10:41:17+01:00</time>
      </trkpt>
      <trkpt lat="43.8285" lon="5.25202">
        <ele>343.3</ele>
        <time>2021-02-06T10:41:36+01:00</time>
      </trkpt>
      <trkpt lat="43.82856" lon="5.25233">
        <ele>344.4</ele>
        <time>2021-02-06T10:41:56+01:00</time>
      </trkpt>
      <trkpt lat="43.82866" lon="5.25262">
        <ele>345.5</ele>
        <time>2021-02-06T10:42:15+01:00</time>
      </trkpt>
      <trkpt lat="43.82876" lon="5.25289">
        <ele>346.2</ele>
        <time>2021-02-06T10:42:35+01:00</time>
      </trkpt>
      <trkpt lat="43.82886" lon="5.25318">
        <ele>346.6</ele>
        <time>2021-02-06T10:42:55+01:00</time>
      </trkpt>
      <trkpt lat="43.82895" lon="5.25347">
        <ele>346.9</ele>
        <time>2021-02-06T10:43:15+01:00</time>
      </trkpt>
      <trkpt lat="43.82901" lon="5.25378">
        <ele>347.7</ele>
        <time>2021-02-06T10:43:36+01:00</time>
      </trkpt>
      <trkpt lat="43.82902" lon="5.25411">
        <ele>348.6</ele>
        <time>2021-02-06T10:43:57+01:00</time>
      </trkpt>
      <trkpt lat="43.829" lon="5.25442">
        <ele>348.8</ele>
        <time>2021-02-06T10:44:16+01:00</time>
      </trkpt>
      <trkpt lat="43.82902" lon="5.25474">
        <ele>348.7</ele>
        <time>2021-02-06T10:44:37+01:00</time>
      </trkpt>
      <trkpt lat="43.82911" lon="5.25504">
        <ele>348.4</ele>
        <time>2021-02-06T10:44:57+01:00</time>
      </trkpt>
      <trkpt lat="43.82917" lon="5.25535">
        <ele>348.8</ele>
        <time>2021-02-06T10:45:18+01:00</time>
      </trkpt>
      <trkpt lat="43.82926" lon="5.25565">
        <ele>349.6</ele>
        <time>2021-02-06T10:45:38+01:00</time>
      </trkpt>
      <trkpt lat="43.82937" lon="5.25592">
        <ele>350.3</ele>
        <time>2021-02-06T10:45:58+01:00</time>
      </trkpt>
      <trkpt lat="43.82953" lon="5.25615">
        <ele>351</ele>
        <time>2021-02-06T10:46:43+01:00</time>
      </trkpt>
      <trkpt lat="43.82958" lon="5.25646">
        <ele>351.9</ele>
        <time>2021-02-06T10:46:56+01:00</time>
      </trkpt>
      <trkpt lat="43.82966" lon="5.25676">
        <ele>352.6</ele>
        <time>2021-02-06T10:47:14+01:00</time>
      </trkpt>
      <trkpt lat="43.82973" lon="5.25707">
        <ele>353.1</ele>
        <time>2021-02-06T10:47:32+01:00</time>
      </trkpt>
      <trkpt lat="43.82978" lon="5.25739">
        <ele>353.8</ele>
        <time>2021-02-06T10:47:50+01:00</time>
      </trkpt>
      <trkpt lat="43.8298" lon="5.2577">
        <ele>354.9</ele>
        <time>2021-02-06T10:48:07+01:00</time>
      </trkpt>
      <trkpt lat="43.82983" lon="5.25802">
        <ele>356.4</ele>
        <time>2021-02-06T10:48:26+01:00</time>
      </trkpt>
      <trkpt lat="43.82985" lon="5.25834">
        <ele>357.8</ele>
        <time>2021-02-06T10:49:00+01:00</time>
      </trkpt>
      <trkpt lat="43.82987" lon="5.25865">
        <ele>358.2</ele>
        <time>2021-02-06T10:49:20+01:00</time>
      </trkpt>
      <trkpt lat="43.82994" lon="5.25896">
        <ele>358.7</ele>
        <time>2021-02-06T10:49:51+01:00</time>
      </trkpt>
      <trkpt lat="43.82994" lon="5.25928">
        <ele>359.2</ele>
        <time>2021-02-06T10:50:08+01:00</time>
      </trkpt>
      <trkpt lat="43.82994" lon="5.25959">
        <ele>359.9</ele>
        <time>2021-02-06T10:50:25+01:00</time>
      </trkpt>
      <trkpt lat="43.82995" lon="5.25991">
        <ele>360.7</ele>
        <time>2021-02-06T10:50:43+01:00</time>
      </trkpt>
      <trkpt lat="43.82994" lon="5.26022">
        <ele>361.6</ele>
        <time>2021-02-06T10:51:04+01:00</time>
      </trkpt>
      <trkpt lat="43.82997" lon="5.26054">
        <ele>362.9</ele>
        <time>2021-02-06T10:51:22+01:00</time>
      </trkpt>
      <trkpt lat="43.82998" lon="5.26087">
        <ele>364</ele>
        <time>2021-02-06T10:51:48+01:00</time>
      </trkpt>
      <trkpt lat="43.83003" lon="5.26119">
        <ele>364.8</ele>
        <time>2021-02-06T10:52:11+01:00</time>
      </trkpt>
      <trkpt lat="43.83003" lon="5.2615">
        <ele>365.5</ele>
        <time>2021-02-06T10:52:34+01:00</time>
      </trkpt>
      <trkpt lat="43.83002" lon="5.26182">
        <ele>365.6</ele>
        <time>2021-02-06T10:52:59+01:00</time>
      </trkpt>
      <trkpt lat="43.83005" lon="5.26214">
        <ele>364.8</ele>
        <time>2021-02-06T10:53:19+01:00</time>
      </trkpt>
      <trkpt lat="43.83006" lon="5.26247">
        <ele>364.1</ele>
        <time>2021-02-06T10:53:41+01:00</time>
      </trkpt>
      <trkpt lat="43.83007" lon="5.26279">
        <ele>363.7</ele>
        <time>2021-02-06T10:54:00+01:00</time>
      </trkpt>
      <trkpt lat="43.83009" lon="5.2631">
        <ele>363.3</ele>
        <time>2021-02-06T10:54:22+01:00</time>
      </trkpt>
      <trkpt lat="43.83011" lon="5.26341">
        <ele>362.8</ele>
        <time>2021-02-06T10:54:43+01:00</time>
      </trkpt>
      <trkpt lat="43.83011" lon="5.26373">
        <ele>362.1</ele>
        <time>2021-02-06T10:55:10+01:00</time>
      </trkpt>
      <trkpt lat="43.83018" lon="5.26404">
        <ele>361.5</ele>
        <time>2021-02-06T10:55:29+01:00</time>
      </trkpt>
      <trkpt lat="43.83021" lon="5.26436">
        <ele>360.4</ele>
        <time>2021-02-06T10:55:50+01:00</time>
      </trkpt>
      <trkpt lat="43.83028" lon="5.26466">
        <ele>359.3</ele>
        <time>2021-02-06T10:56:11+01:00</time>
      </trkpt>
      <trkpt lat="43.83033" lon="5.26498">
        <ele>358.3</ele>
        <time>2021-02-06T10:56:31+01:00</time>
      </trkpt>
      <trkpt lat="43.8304" lon="5.26528">
        <ele>357.8</ele>
        <time>2021-02-06T10:56:52+01:00</time>
      </trkpt>
      <trkpt lat="43.8304" lon="5.26561">
        <ele>357</ele>
        <time>2021-02-06T10:57:13+01:00</time>
      </trkpt>
      <trkpt lat="43.8305" lon="5.2659">
        <ele>356.5</ele>
        <time>2021-02-06T10:57:54+01:00</time>
      </trkpt>
      <trkpt lat="43.83065" lon="5.26612">
        <ele>356.3</ele>
        <time>2021-02-06T10:58:16+01:00</time>
      </trkpt>
      <trkpt lat="43.83079" lon="5.26638">
        <ele>355.9</ele>
        <time>2021-02-06T10:58:40+01:00</time>
      </trkpt>
      <trkpt lat="43.83092" lon="5.26664">
        <ele>354.9</ele>
        <time>2021-02-06T10:59:19+01:00</time>
      </trkpt>
      <trkpt lat="43.83106" lon="5.2669">
        <ele>354.8</ele>
        <time>2021-02-06T10:59:40+01:00</time>
      </trkpt>
      <trkpt lat="43.83117" lon="5.26718">
        <ele>355.2</ele>
        <time>2021-02-06T11:00:02+01:00</time>
      </trkpt>
      <trkpt lat="43.83118" lon="5.2675">
        <ele>355.8</ele>
        <time>2021-02-06T11:00:21+01:00</time>
      </trkpt>
      <trkpt lat="43.83124" lon="5.26782">
        <ele>355.6</ele>
        <time>2021-02-06T11:00:41+01:00</time>
      </trkpt>
      <trkpt lat="43.83128" lon="5.26813">
        <ele>355.4</ele>
        <time>2021-02-06T11:01:00+01:00</time>
      </trkpt>
      <trkpt lat="43.83134" lon="5.26844">
        <ele>355.2</ele>
        <time>2021-02-06T11:01:20+01:00</time>
      </trkpt>
      <trkpt lat="43.83144" lon="5.26872">
        <ele>355.4</ele>
        <time>2021-02-06T11:01:44+01:00</time>
      </trkpt>
      <trkpt lat="43.83159" lon="5.26896">
        <ele>356.4</ele>
        <time>2021-02-06T11:02:11+01:00</time>
      </trkpt>
      <trkpt lat="43.83174" lon="5.26921">
        <ele>356.9</ele>
        <time>2021-02-06T11:02:39+01:00</time>
      </trkpt>
      <trkpt lat="43.8317" lon="5.2689">
        <ele>356.9</ele>
        <time>2021-02-06T11:05:05+01:00</time>
      </trkpt>
      <trkpt lat="43.8315" lon="5.26874">
        <ele>355.8</ele>
        <time>2021-02-06T11:05:44+01:00</time>
      </trkpt>
      <trkpt lat="43.83144" lon="5.26904">
        <ele>355</ele>
        <time>2021-02-06T11:06:35+01:00</time>
      </trkpt>
      <trkpt lat="43.83147" lon="5.26937">
        <ele>355.4</ele>
        <time>2021-02-06T11:06:53+01:00</time>
      </trkpt>
      <trkpt lat="43.83159" lon="5.26964">
        <ele>357.2</ele>
        <time>2021-02-06T11:07:10+01:00</time>
      </trkpt>
      <trkpt lat="43.83174" lon="5.26988">
        <ele>358.7</ele>
        <time>2021-02-06T11:07:44+01:00</time>
      </trkpt>
      <trkpt lat="43.83181" lon="5.27018">
        <ele>358.3</ele>
        <time>2021-02-06T11:08:02+01:00</time>
      </trkpt>
      <trkpt lat="43.83183" lon="5.2705">
        <ele>357</ele>
        <time>2021-02-06T11:08:19+01:00</time>
      </trkpt>
      <trkpt lat="43.83194" lon="5.27079">
        <ele>356.1</ele>
        <time>2021-02-06T11:08:38+01:00</time>
      </trkpt>
      <trkpt lat="43.83203" lon="5.27107">
        <ele>354.5</ele>
        <time>2021-02-06T11:08:57+01:00</time>
      </trkpt>
      <trkpt lat="43.83211" lon="5.27137">
        <ele>352.8</ele>
        <time>2021-02-06T11:09:20+01:00</time>
      </trkpt>
      <trkpt lat="43.83227" lon="5.2716">
        <ele>352.5</ele>
        <time>2021-02-06T11:10:12+01:00</time>
      </trkpt>
      <trkpt lat="43.83249" lon="5.2716">
        <ele>354.3</ele>
        <time>2021-02-06T11:10:51+01:00</time>
      </trkpt>
      <trkpt lat="43.83227" lon="5.27158">
        <ele>352.5</ele>
        <time>2021-02-06T11:12:39+01:00</time>
      </trkpt>
      <trkpt lat="43.83215" lon="5.27186">
        <ele>347.2</ele>
        <time>2021-02-06T11:15:05+01:00</time>
      </trkpt>
      <trkpt lat="43.83208" lon="5.27215">
        <ele>340.5</ele>
        <time>2021-02-06T11:15:39+01:00</time>
      </trkpt>
      <trkpt lat="43.83212" lon="5.27246">
        <ele>334.6</ele>
        <time>2021-02-06T11:16:15+01:00</time>
      </trkpt>
      <trkpt lat="43.83221" lon="5.27277">
        <ele>325.9</ele>
        <time>2021-02-06T11:19:03+01:00</time>
      </trkpt>
      <trkpt lat="43.83242" lon="5.27291">
        <ele>323.4</ele>
        <time>2021-02-06T11:19:54+01:00</time>
      </trkpt>
      <trkpt lat="43.83265" lon="5.27287">
        <ele>323.2</ele>
        <time>2021-02-06T11:20:18+01:00</time>
      </trkpt>
      <trkpt lat="43.83288" lon="5.27289">
        <ele>319.7</ele>
        <time>2021-02-06T11:21:04+01:00</time>
      </trkpt>
      <trkpt lat="43.83309" lon="5.27277">
        <ele>319</ele>
        <time>2021-02-06T11:21:39+01:00</time>
      </trkpt>
      <trkpt lat="43.83325" lon="5.273">
        <ele>312.8</ele>
        <time>2021-02-06T11:22:30+01:00</time>
      </trkpt>
      <trkpt lat="43.83343" lon="5.27279">
        <ele>312.9</ele>
        <time>2021-02-06T11:22:52+01:00</time>
      </trkpt>
      <trkpt lat="43.83334" lon="5.2731">
        <ele>310.3</ele>
        <time>2021-02-06T11:24:57+01:00</time>
      </trkpt>
      <trkpt lat="43.83336" lon="5.27341">
        <ele>305.7</ele>
        <time>2021-02-06T11:25:20+01:00</time>
      </trkpt>
      <trkpt lat="43.8334" lon="5.27372">
        <ele>301.6</ele>
        <time>2021-02-06T11:25:43+01:00</time>
      </trkpt>
      <trkpt lat="43.83355" lon="5.27396">
        <ele>297.5</ele>
        <time>2021-02-06T11:26:23+01:00</time>
      </trkpt>
      <trkpt lat="43.83374" lon="5.27378">
        <ele>297.4</ele>
        <time>2021-02-06T11:27:20+01:00</time>
      </trkpt>
      <trkpt lat="43.8339" lon="5.27355">
        <ele>297.3</ele>
        <time>2021-02-06T11:27:39+01:00</time>
      </trkpt>
      <trkpt lat="43.83403" lon="5.27328">
        <ele>297.4</ele>
        <time>2021-02-06T11:28:09+01:00</time>
      </trkpt>
      <trkpt lat="43.83417" lon="5.27304">
        <ele>296.8</ele>
        <time>2021-02-06T11:28:31+01:00</time>
      </trkpt>
      <trkpt lat="43.83432" lon="5.2728">
        <ele>296.1</ele>
        <time>2021-02-06T11:28:50+01:00</time>
      </trkpt>
      <trkpt lat="43.83442" lon="5.27252">
        <ele>296.2</ele>
        <time>2021-02-06T11:29:08+01:00</time>
      </trkpt>
      <trkpt lat="43.83455" lon="5.27224">
        <ele>297.3</ele>
        <time>2021-02-06T11:29:33+01:00</time>
      </trkpt>
      <trkpt lat="43.83469" lon="5.272">
        <ele>298</ele>
        <time>2021-02-06T11:29:51+01:00</time>
      </trkpt>
      <trkpt lat="43.83482" lon="5.27174">
        <ele>299.3</ele>
        <time>2021-02-06T11:30:14+01:00</time>
      </trkpt>
      <trkpt lat="43.835" lon="5.27155">
        <ele>298.7</ele>
        <time>2021-02-06T11:30:33+01:00</time>
      </trkpt>
      <trkpt lat="43.83485" lon="5.27132">
        <ele>302.8</ele>
        <time>2021-02-06T11:31:22+01:00</time>
      </trkpt>
      <trkpt lat="43.83479" lon="5.27102">
        <ele>306.7</ele>
        <time>2021-02-06T11:32:01+01:00</time>
      </trkpt>
      <trkpt lat="43.83493" lon="5.27077">
        <ele>305.7</ele>
        <time>2021-02-06T11:32:21+01:00</time>
      </trkpt>
      <trkpt lat="43.83507" lon="5.27052">
        <ele>304.9</ele>
        <time>2021-02-06T11:32:42+01:00</time>
      </trkpt>
      <trkpt lat="43.8352" lon="5.27026">
        <ele>305.1</ele>
        <time>2021-02-06T11:33:09+01:00</time>
      </trkpt>
      <trkpt lat="43.83535" lon="5.27003">
        <ele>303.9</ele>
        <time>2021-02-06T11:33:37+01:00</time>
      </trkpt>
      <trkpt lat="43.8355" lon="5.26979">
        <ele>301.8</ele>
        <time>2021-02-06T11:34:05+01:00</time>
      </trkpt>
      <trkpt lat="43.83569" lon="5.2696">
        <ele>298.2</ele>
        <time>2021-02-06T11:34:34+01:00</time>
      </trkpt>
      <trkpt lat="43.83587" lon="5.26941">
        <ele>294.5</ele>
        <time>2021-02-06T11:35:02+01:00</time>
      </trkpt>
      <trkpt lat="43.83605" lon="5.26923">
        <ele>291.8</ele>
        <time>2021-02-06T11:35:30+01:00</time>
      </trkpt>
      <trkpt lat="43.83623" lon="5.26903">
        <ele>289</ele>
        <time>2021-02-06T11:35:56+01:00</time>
      </trkpt>
      <trkpt lat="43.83641" lon="5.26883">
        <ele>286.3</ele>
        <time>2021-02-06T11:36:22+01:00</time>
      </trkpt>
      <trkpt lat="43.83662" lon="5.26868">
        <ele>283.6</ele>
        <time>2021-02-06T11:36:53+01:00</time>
      </trkpt>
      <trkpt lat="43.83678" lon="5.26847">
        <ele>282.1</ele>
        <time>2021-02-06T11:37:17+01:00</time>
      </trkpt>
      <trkpt lat="43.83682" lon="5.26816">
        <ele>280.5</ele>
        <time>2021-02-06T11:37:44+01:00</time>
      </trkpt>
      <trkpt lat="43.83682" lon="5.26784">
        <ele>278.3</ele>
        <time>2021-02-06T11:38:06+01:00</time>
      </trkpt>
      <trkpt lat="43.83682" lon="5.26753">
        <ele>276.1</ele>
        <time>2021-02-06T11:38:26+01:00</time>
      </trkpt>
      <trkpt lat="43.83676" lon="5.26722">
        <ele>275</ele>
        <time>2021-02-06T11:38:55+01:00</time>
      </trkpt>
      <trkpt lat="43.83664" lon="5.26694">
        <ele>274.6</ele>
        <time>2021-02-06T11:39:18+01:00</time>
      </trkpt>
      <trkpt lat="43.8365" lon="5.26669">
        <ele>274.7</ele>
        <time>2021-02-06T11:39:38+01:00</time>
      </trkpt>
      <trkpt lat="43.83651" lon="5.26637">
        <ele>275.4</ele>
        <time>2021-02-06T11:39:58+01:00</time>
      </trkpt>
      <trkpt lat="43.83665" lon="5.26611">
        <ele>274.6</ele>
        <time>2021-02-06T11:40:18+01:00</time>
      </trkpt>
      <trkpt lat="43.83682" lon="5.26591">
        <ele>273.4</ele>
        <time>2021-02-06T11:40:39+01:00</time>
      </trkpt>
      <trkpt lat="43.837" lon="5.26571">
        <ele>272.3</ele>
        <time>2021-02-06T11:41:01+01:00</time>
      </trkpt>
      <trkpt lat="43.83716" lon="5.26547">
        <ele>271.8</ele>
        <time>2021-02-06T11:41:21+01:00</time>
      </trkpt>
      <trkpt lat="43.83695" lon="5.26532">
        <ele>274.5</ele>
        <time>2021-02-06T11:41:42+01:00</time>
      </trkpt>
      <trkpt lat="43.83675" lon="5.26516">
        <ele>277.3</ele>
        <time>2021-02-06T11:42:06+01:00</time>
      </trkpt>
      <trkpt lat="43.83655" lon="5.26501">
        <ele>280</ele>
        <time>2021-02-06T11:42:29+01:00</time>
      </trkpt>
      <trkpt lat="43.83636" lon="5.26484">
        <ele>282.1</ele>
        <time>2021-02-06T11:47:26+01:00</time>
      </trkpt>
      <trkpt lat="43.8362" lon="5.26461">
        <ele>283.7</ele>
        <time>2021-02-06T11:47:52+01:00</time>
      </trkpt>
      <trkpt lat="43.83621" lon="5.26429">
        <ele>283.8</ele>
        <time>2021-02-06T11:48:14+01:00</time>
      </trkpt>
      <trkpt lat="43.83618" lon="5.26397">
        <ele>283.6</ele>
        <time>2021-02-06T11:48:34+01:00</time>
      </trkpt>
      <trkpt lat="43.83614" lon="5.26367">
        <ele>283.2</ele>
        <time>2021-02-06T11:48:54+01:00</time>
      </trkpt>
      <trkpt lat="43.83613" lon="5.26335">
        <ele>282.6</ele>
        <time>2021-02-06T11:49:13+01:00</time>
      </trkpt>
      <trkpt lat="43.83608" lon="5.26304">
        <ele>282.9</ele>
        <time>2021-02-06T11:49:34+01:00</time>
      </trkpt>
      <trkpt lat="43.8361" lon="5.26273">
        <ele>282.5</ele>
        <time>2021-02-06T11:49:53+01:00</time>
      </trkpt>
      <trkpt lat="43.83611" lon="5.2624">
        <ele>282.4</ele>
        <time>2021-02-06T11:50:12+01:00</time>
      </trkpt>
      <trkpt lat="43.83612" lon="5.26209">
        <ele>282.6</ele>
        <time>2021-02-06T11:50:45+01:00</time>
      </trkpt>
      <trkpt lat="43.83614" lon="5.26177">
        <ele>282.7</ele>
        <time>2021-02-06T11:51:06+01:00</time>
      </trkpt>
      <trkpt lat="43.83618" lon="5.26145">
        <ele>282</ele>
        <time>2021-02-06T11:51:26+01:00</time>
      </trkpt>
      <trkpt lat="43.83618" lon="5.26113">
        <ele>281.3</ele>
        <time>2021-02-06T11:51:46+01:00</time>
      </trkpt>
      <trkpt lat="43.83624" lon="5.26083">
        <ele>280.5</ele>
        <time>2021-02-06T11:52:06+01:00</time>
      </trkpt>
      <trkpt lat="43.83631" lon="5.26053">
        <ele>278.9</ele>
        <time>2021-02-06T11:52:32+01:00</time>
      </trkpt>
      <trkpt lat="43.83637" lon="5.26022">
        <ele>277</ele>
        <time>2021-02-06T11:52:56+01:00</time>
      </trkpt>
      <trkpt lat="43.8364" lon="5.2599">
        <ele>275.5</ele>
        <time>2021-02-06T11:53:17+01:00</time>
      </trkpt>
      <trkpt lat="43.83636" lon="5.25959">
        <ele>275.5</ele>
        <time>2021-02-06T11:53:40+01:00</time>
      </trkpt>
      <trkpt lat="43.83638" lon="5.25927">
        <ele>275.2</ele>
        <time>2021-02-06T11:54:00+01:00</time>
      </trkpt>
      <trkpt lat="43.83641" lon="5.25896">
        <ele>274.8</ele>
        <time>2021-02-06T11:54:20+01:00</time>
      </trkpt>
      <trkpt lat="43.83644" lon="5.25864">
        <ele>274.3</ele>
        <time>2021-02-06T11:54:40+01:00</time>
      </trkpt>
      <trkpt lat="43.83653" lon="5.25835">
        <ele>273.3</ele>
        <time>2021-02-06T11:55:10+01:00</time>
      </trkpt>
      <trkpt lat="43.83666" lon="5.25808">
        <ele>271.8</ele>
        <time>2021-02-06T11:55:56+01:00</time>
      </trkpt>
      <trkpt lat="43.8368" lon="5.25784">
        <ele>271</ele>
        <time>2021-02-06T11:56:19+01:00</time>
      </trkpt>
      <trkpt lat="43.83695" lon="5.25759">
        <ele>270.3</ele>
        <time>2021-02-06T11:56:41+01:00</time>
      </trkpt>
      <trkpt lat="43.83711" lon="5.25737">
        <ele>270.2</ele>
        <time>2021-02-06T11:57:02+01:00</time>
      </trkpt>
      <trkpt lat="43.83724" lon="5.2571">
        <ele>270.2</ele>
        <time>2021-02-06T11:57:24+01:00</time>
      </trkpt>
      <trkpt lat="43.83733" lon="5.25681">
        <ele>270.1</ele>
        <time>2021-02-06T11:57:43+01:00</time>
      </trkpt>
      <trkpt lat="43.83749" lon="5.25658">
        <ele>269.1</ele>
        <time>2021-02-06T11:58:04+01:00</time>
      </trkpt>
      <trkpt lat="43.83763" lon="5.25633">
        <ele>268.2</ele>
        <time>2021-02-06T11:58:23+01:00</time>
      </trkpt>
      <trkpt lat="43.83775" lon="5.25607">
        <ele>267.6</ele>
        <time>2021-02-06T11:58:42+01:00</time>
      </trkpt>
      <trkpt lat="43.83788" lon="5.25581">
        <ele>267.2</ele>
        <time>2021-02-06T11:59:08+01:00</time>
      </trkpt>
      <trkpt lat="43.83789" lon="5.25549">
        <ele>267.3</ele>
        <time>2021-02-06T11:59:41+01:00</time>
      </trkpt>
      <trkpt lat="43.838" lon="5.25521">
        <ele>267.2</ele>
        <time>2021-02-06T12:00:02+01:00</time>
      </trkpt>
      <trkpt lat="43.83808" lon="5.25491">
        <ele>267.1</ele>
        <time>2021-02-06T12:00:26+01:00</time>
      </trkpt>
      <trkpt lat="43.8382" lon="5.25464">
        <ele>266.1</ele>
        <time>2021-02-06T12:00:48+01:00</time>
      </trkpt>
      <trkpt lat="43.83826" lon="5.25432">
        <ele>264.9</ele>
        <time>2021-02-06T12:01:16+01:00</time>
      </trkpt>
      <trkpt lat="43.83833" lon="5.25402">
        <ele>263.7</ele>
        <time>2021-02-06T12:01:40+01:00</time>
      </trkpt>
      <trkpt lat="43.83831" lon="5.25371">
        <ele>263.1</ele>
        <time>2021-02-06T12:02:01+01:00</time>
      </trkpt>
      <trkpt lat="43.83828" lon="5.25339">
        <ele>262.8</ele>
        <time>2021-02-06T12:02:34+01:00</time>
      </trkpt>
      <trkpt lat="43.83837" lon="5.2531">
        <ele>260.8</ele>
        <time>2021-02-06T12:03:05+01:00</time>
      </trkpt>
      <trkpt lat="43.83847" lon="5.25282">
        <ele>259</ele>
        <time>2021-02-06T12:03:32+01:00</time>
      </trkpt>
      <trkpt lat="43.83859" lon="5.25254">
        <ele>257.3</ele>
        <time>2021-02-06T12:03:53+01:00</time>
      </trkpt>
      <trkpt lat="43.83871" lon="5.25227">
        <ele>256.7</ele>
        <time>2021-02-06T12:04:25+01:00</time>
      </trkpt>
      <trkpt lat="43.83879" lon="5.25198">
        <ele>256.1</ele>
        <time>2021-02-06T12:04:47+01:00</time>
      </trkpt>
      <trkpt lat="43.83889" lon="5.25169">
        <ele>254.6</ele>
        <time>2021-02-06T12:05:12+01:00</time>
      </trkpt>
      <trkpt lat="43.83898" lon="5.25139">
        <ele>253.3</ele>
        <time>2021-02-06T12:05:33+01:00</time>
      </trkpt>
      <trkpt lat="43.83916" lon="5.25158">
        <ele>250.8</ele>
        <time>2021-02-06T12:08:10+01:00</time>
      </trkpt>
      <trkpt lat="43.83933" lon="5.2518">
        <ele>250.9</ele>
        <time>2021-02-06T12:08:33+01:00</time>
      </trkpt>
      <trkpt lat="43.83947" lon="5.25205">
        <ele>251.5</ele>
        <time>2021-02-06T12:08:54+01:00</time>
      </trkpt>
      <trkpt lat="43.8397" lon="5.252">
        <ele>250.3</ele>
        <time>2021-02-06T12:09:18+01:00</time>
      </trkpt>
      <trkpt lat="43.8399" lon="5.25186">
        <ele>248.6</ele>
        <time>2021-02-06T12:09:38+01:00</time>
      </trkpt>
      <trkpt lat="43.84013" lon="5.25178">
        <ele>246.9</ele>
        <time>2021-02-06T12:09:57+01:00</time>
      </trkpt>
      <trkpt lat="43.84035" lon="5.25167">
        <ele>245</ele>
        <time>2021-02-06T12:10:17+01:00</time>
      </trkpt>
      <trkpt lat="43.84057" lon="5.25162">
        <ele>243.4</ele>
        <time>2021-02-06T12:10:39+01:00</time>
      </trkpt>
      <trkpt lat="43.84075" lon="5.25182">
        <ele>243.1</ele>
        <time>2021-02-06T12:11:02+01:00</time>
      </trkpt>
      <trkpt lat="43.84092" lon="5.25203">
        <ele>242.4</ele>
        <time>2021-02-06T12:11:23+01:00</time>
      </trkpt>
      <trkpt lat="43.84111" lon="5.25221">
        <ele>241.3</ele>
        <time>2021-02-06T12:11:44+01:00</time>
      </trkpt>
      <trkpt lat="43.8413" lon="5.25237">
        <ele>240.3</ele>
        <time>2021-02-06T12:12:06+01:00</time>
      </trkpt>
      <trkpt lat="43.84153" lon="5.25247">
        <ele>238.9</ele>
        <time>2021-02-06T12:12:36+01:00</time>
      </trkpt>
      <trkpt lat="43.84164" lon="5.25275">
        <ele>237.9</ele>
        <time>2021-02-06T12:14:05+01:00</time>
      </trkpt>
      <trkpt lat="43.84183" lon="5.25294">
        <ele>236.1</ele>
        <time>2021-02-06T12:14:29+01:00</time>
      </trkpt>
      <trkpt lat="43.842" lon="5.25273">
        <ele>234.4</ele>
        <time>2021-02-06T12:15:30+01:00</time>
      </trkpt>
      <trkpt lat="43.84215" lon="5.25249">
        <ele>232.8</ele>
        <time>2021-02-06T12:15:53+01:00</time>
      </trkpt>
      <trkpt lat="43.84226" lon="5.25221">
        <ele>230.7</ele>
        <time>2021-02-06T12:16:13+01:00</time>
      </trkpt>
      <trkpt lat="43.84235" lon="5.25192">
        <ele>229.3</ele>
        <time>2021-02-06T12:16:34+01:00</time>
      </trkpt>
      <trkpt lat="43.84245" lon="5.25164">
        <ele>228.1</ele>
        <time>2021-02-06T12:16:55+01:00</time>
      </trkpt>
      <trkpt lat="43.84252" lon="5.25133">
        <ele>226.7</ele>
        <time>2021-02-06T12:17:16+01:00</time>
      </trkpt>
      <trkpt lat="43.84263" lon="5.25104">
        <ele>225.4</ele>
        <time>2021-02-06T12:17:41+01:00</time>
      </trkpt>
      <trkpt lat="43.84274" lon="5.25077">
        <ele>224.4</ele>
        <time>2021-02-06T12:18:00+01:00</time>
      </trkpt>
      <trkpt lat="43.84284" lon="5.25048">
        <ele>224</ele>
        <time>2021-02-06T12:18:19+01:00</time>
      </trkpt>
      <trkpt lat="43.84293" lon="5.25019">
        <ele>223.6</ele>
        <time>2021-02-06T12:18:39+01:00</time>
      </trkpt>
      <trkpt lat="43.84306" lon="5.24994">
        <ele>223</ele>
        <time>2021-02-06T12:18:59+01:00</time>
      </trkpt>
      <trkpt lat="43.84315" lon="5.24964">
        <ele>223</ele>
        <time>2021-02-06T12:19:25+01:00</time>
      </trkpt>
      <trkpt lat="43.84325" lon="5.24934">
        <ele>223</ele>
        <time>2021-02-06T12:19:53+01:00</time>
      </trkpt>
      <trkpt lat="43.84334" lon="5.24905">
        <ele>223.4</ele>
        <time>2021-02-06T12:20:15+01:00</time>
      </trkpt>
      <trkpt lat="43.8434" lon="5.24874">
        <ele>224</ele>
        <time>2021-02-06T12:20:40+01:00</time>
      </trkpt>
      <trkpt lat="43.84351" lon="5.24847">
        <ele>224.4</ele>
        <time>2021-02-06T12:21:00+01:00</time>
      </trkpt>
      <trkpt lat="43.84364" lon="5.2482">
        <ele>224.7</ele>
        <time>2021-02-06T12:21:21+01:00</time>
      </trkpt>
      <trkpt lat="43.84372" lon="5.24791">
        <ele>225.2</ele>
        <time>2021-02-06T12:21:43+01:00</time>
      </trkpt>
      <trkpt lat="43.84375" lon="5.2476">
        <ele>226.1</ele>
        <time>2021-02-06T12:23:02+01:00</time>
      </trkpt>
      <trkpt lat="43.84367" lon="5.24729">
        <ele>228</ele>
        <time>2021-02-06T12:23:46+01:00</time>
      </trkpt>
      <trkpt lat="43.84354" lon="5.24703">
        <ele>230.6</ele>
        <time>2021-02-06T12:24:24+01:00</time>
      </trkpt>
      <trkpt lat="43.84341" lon="5.24676">
        <ele>233.4</ele>
        <time>2021-02-06T12:24:45+01:00</time>
      </trkpt>
      <trkpt lat="43.84334" lon="5.24647">
        <ele>235.9</ele>
        <time>2021-02-06T12:26:14+01:00</time>
      </trkpt>
      <trkpt lat="43.84313" lon="5.24632">
        <ele>237.4</ele>
        <time>2021-02-06T12:26:50+01:00</time>
      </trkpt>
      <trkpt lat="43.84294" lon="5.24616">
        <ele>238.9</ele>
        <time>2021-02-06T12:27:12+01:00</time>
      </trkpt>
      <trkpt lat="43.84291" lon="5.24585">
        <ele>240.4</ele>
        <time>2021-02-06T12:27:36+01:00</time>
      </trkpt>
      <trkpt lat="43.84296" lon="5.24555">
        <ele>241.6</ele>
        <time>2021-02-06T12:27:56+01:00</time>
      </trkpt>
      <trkpt lat="43.84307" lon="5.24525">
        <ele>242.5</ele>
        <time>2021-02-06T12:28:31+01:00</time>
      </trkpt>
      <trkpt lat="43.84318" lon="5.24497">
        <ele>243.4</ele>
        <time>2021-02-06T12:28:53+01:00</time>
      </trkpt>
      <trkpt lat="43.84331" lon="5.2447">
        <ele>243.4</ele>
        <time>2021-02-06T12:29:17+01:00</time>
      </trkpt>
      <trkpt lat="43.84341" lon="5.24442">
        <ele>243.1</ele>
        <time>2021-02-06T12:29:41+01:00</time>
      </trkpt>
      <trkpt lat="43.84337" lon="5.2441">
        <ele>243.9</ele>
        <time>2021-02-06T12:30:02+01:00</time>
      </trkpt>
      <trkpt lat="43.84345" lon="5.24381">
        <ele>244</ele>
        <time>2021-02-06T12:30:21+01:00</time>
      </trkpt>
      <trkpt lat="43.8436" lon="5.24355">
        <ele>243.9</ele>
        <time>2021-02-06T12:30:39+01:00</time>
      </trkpt>
      <trkpt lat="43.8438" lon="5.24339">
        <ele>243.7</ele>
        <time>2021-02-06T12:30:59+01:00</time>
      </trkpt>
      <trkpt lat="43.84403" lon="5.24339">
        <ele>243.2</ele>
        <time>2021-02-06T12:31:24+01:00</time>
      </trkpt>
      <trkpt lat="43.84423" lon="5.24355">
        <ele>241.6</ele>
        <time>2021-02-06T12:31:53+01:00</time>
      </trkpt>
      <trkpt lat="43.84401" lon="5.24344">
        <ele>243</ele>
        <time>2021-02-06T13:15:02+01:00</time>
      </trkpt>
      <trkpt lat="43.84379" lon="5.2434">
        <ele>243.7</ele>
        <time>2021-02-06T13:15:23+01:00</time>
      </trkpt>
      <trkpt lat="43.8436" lon="5.24358">
        <ele>243.9</ele>
        <time>2021-02-06T13:15:42+01:00</time>
      </trkpt>
      <trkpt lat="43.84344" lon="5.24381">
        <ele>244</ele>
        <time>2021-02-06T13:16:08+01:00</time>
      </trkpt>
      <trkpt lat="43.84338" lon="5.24411">
        <ele>243.9</ele>
        <time>2021-02-06T13:16:46+01:00</time>
      </trkpt>
      <trkpt lat="43.84336" lon="5.24443">
        <ele>243.5</ele>
        <time>2021-02-06T13:17:07+01:00</time>
      </trkpt>
      <trkpt lat="43.84315" lon="5.24431">
        <ele>244.6</ele>
        <time>2021-02-06T13:17:39+01:00</time>
      </trkpt>
      <trkpt lat="43.84296" lon="5.24414">
        <ele>246</ele>
        <time>2021-02-06T13:17:58+01:00</time>
      </trkpt>
      <trkpt lat="43.84277" lon="5.24395">
        <ele>248.7</ele>
        <time>2021-02-06T13:18:20+01:00</time>
      </trkpt>
      <trkpt lat="43.84259" lon="5.24375">
        <ele>252.5</ele>
        <time>2021-02-06T13:18:40+01:00</time>
      </trkpt>
      <trkpt lat="43.84254" lon="5.24344">
        <ele>257</ele>
        <time>2021-02-06T13:19:08+01:00</time>
      </trkpt>
      <trkpt lat="43.84265" lon="5.24316">
        <ele>260.1</ele>
        <time>2021-02-06T13:19:31+01:00</time>
      </trkpt>
      <trkpt lat="43.84276" lon="5.24288">
        <ele>263.7</ele>
        <time>2021-02-06T13:19:53+01:00</time>
      </trkpt>
      <trkpt lat="43.84292" lon="5.24266">
        <ele>264.6</ele>
        <time>2021-02-06T13:20:16+01:00</time>
      </trkpt>
      <trkpt lat="43.8431" lon="5.24247">
        <ele>263.6</ele>
        <time>2021-02-06T13:20:35+01:00</time>
      </trkpt>
      <trkpt lat="43.84332" lon="5.24237">
        <ele>260.4</ele>
        <time>2021-02-06T13:20:57+01:00</time>
      </trkpt>
      <trkpt lat="43.84354" lon="5.24226">
        <ele>259.7</ele>
        <time>2021-02-06T13:21:16+01:00</time>
      </trkpt>
      <trkpt lat="43.84376" lon="5.24216">
        <ele>258.4</ele>
        <time>2021-02-06T13:21:35+01:00</time>
      </trkpt>
      <trkpt lat="43.84397" lon="5.24202">
        <ele>258.4</ele>
        <time>2021-02-06T13:21:56+01:00</time>
      </trkpt>
      <trkpt lat="43.84417" lon="5.24186">
        <ele>259.1</ele>
        <time>2021-02-06T13:22:18+01:00</time>
      </trkpt>
      <trkpt lat="43.84431" lon="5.24161">
        <ele>262.6</ele>
        <time>2021-02-06T13:22:45+01:00</time>
      </trkpt>
      <trkpt lat="43.8445" lon="5.24141">
        <ele>263.5</ele>
        <time>2021-02-06T13:23:07+01:00</time>
      </trkpt>
      <trkpt lat="43.8447" lon="5.24124">
        <ele>264.3</ele>
        <time>2021-02-06T13:23:27+01:00</time>
      </trkpt>
      <trkpt lat="43.84491" lon="5.2411">
        <ele>264.8</ele>
        <time>2021-02-06T13:23:48+01:00</time>
      </trkpt>
      <trkpt lat="43.84512" lon="5.24095">
        <ele>265.6</ele>
        <time>2021-02-06T13:24:08+01:00</time>
      </trkpt>
      <trkpt lat="43.84531" lon="5.24079">
        <ele>266.3</ele>
        <time>2021-02-06T13:24:30+01:00</time>
      </trkpt>
      <trkpt lat="43.84508" lon="5.24077">
        <ele>270.8</ele>
        <time>2021-02-06T13:25:28+01:00</time>
      </trkpt>
      <trkpt lat="43.84485" lon="5.24082">
        <ele>273.2</ele>
        <time>2021-02-06T13:25:57+01:00</time>
      </trkpt>
      <trkpt lat="43.84462" lon="5.24085">
        <ele>275.6</ele>
        <time>2021-02-06T13:26:25+01:00</time>
      </trkpt>
      <trkpt lat="43.8444" lon="5.24093">
        <ele>276.8</ele>
        <time>2021-02-06T13:26:49+01:00</time>
      </trkpt>
      <trkpt lat="43.84417" lon="5.2409">
        <ele>280.5</ele>
        <time>2021-02-06T13:27:49+01:00</time>
      </trkpt>
      <trkpt lat="43.84394" lon="5.24088">
        <ele>282.8</ele>
        <time>2021-02-06T13:28:11+01:00</time>
      </trkpt>
      <trkpt lat="43.84374" lon="5.24102">
        <ele>281.9</ele>
        <time>2021-02-06T13:28:34+01:00</time>
      </trkpt>
      <trkpt lat="43.84351" lon="5.24101">
        <ele>284.3</ele>
        <time>2021-02-06T13:28:56+01:00</time>
      </trkpt>
      <trkpt lat="43.8433" lon="5.24113">
        <ele>284.7</ele>
        <time>2021-02-06T13:29:31+01:00</time>
      </trkpt>
      <trkpt lat="43.84309" lon="5.24127">
        <ele>285.2</ele>
        <time>2021-02-06T13:30:32+01:00</time>
      </trkpt>
      <trkpt lat="43.843" lon="5.24157">
        <ele>284.2</ele>
        <time>2021-02-06T13:30:53+01:00</time>
      </trkpt>
      <trkpt lat="43.84283" lon="5.24178">
        <ele>284.3</ele>
        <time>2021-02-06T13:31:18+01:00</time>
      </trkpt>
      <trkpt lat="43.84262" lon="5.24193">
        <ele>285.1</ele>
        <time>2021-02-06T13:31:45+01:00</time>
      </trkpt>
      <trkpt lat="43.8424" lon="5.242">
        <ele>287.4</ele>
        <time>2021-02-06T13:32:11+01:00</time>
      </trkpt>
      <trkpt lat="43.84218" lon="5.2421">
        <ele>288.7</ele>
        <time>2021-02-06T13:32:45+01:00</time>
      </trkpt>
      <trkpt lat="43.842" lon="5.24228">
        <ele>289.8</ele>
        <time>2021-02-06T13:36:20+01:00</time>
      </trkpt>
      <trkpt lat="43.84181" lon="5.24246">
        <ele>292.3</ele>
        <time>2021-02-06T13:36:43+01:00</time>
      </trkpt>
      <trkpt lat="43.84164" lon="5.24269">
        <ele>292.8</ele>
        <time>2021-02-06T13:37:04+01:00</time>
      </trkpt>
      <trkpt lat="43.84149" lon="5.24292">
        <ele>291</ele>
        <time>2021-02-06T13:37:25+01:00</time>
      </trkpt>
      <trkpt lat="43.84131" lon="5.24312">
        <ele>290.6</ele>
        <time>2021-02-06T13:37:47+01:00</time>
      </trkpt>
      <trkpt lat="43.8411" lon="5.24326">
        <ele>292</ele>
        <time>2021-02-06T13:38:08+01:00</time>
      </trkpt>
      <trkpt lat="43.84089" lon="5.2434">
        <ele>293.8</ele>
        <time>2021-02-06T13:38:26+01:00</time>
      </trkpt>
      <trkpt lat="43.84069" lon="5.24354">
        <ele>293.6</ele>
        <time>2021-02-06T13:38:53+01:00</time>
      </trkpt>
      <trkpt lat="43.84054" lon="5.24378">
        <ele>293</ele>
        <time>2021-02-06T13:39:11+01:00</time>
      </trkpt>
      <trkpt lat="43.84033" lon="5.24392">
        <ele>293.8</ele>
        <time>2021-02-06T13:39:31+01:00</time>
      </trkpt>
      <trkpt lat="43.84012" lon="5.24403">
        <ele>295.5</ele>
        <time>2021-02-06T13:39:51+01:00</time>
      </trkpt>
      <trkpt lat="43.83996" lon="5.24428">
        <ele>296.2</ele>
        <time>2021-02-06T13:40:14+01:00</time>
      </trkpt>
      <trkpt lat="43.83976" lon="5.24442">
        <ele>295.7</ele>
        <time>2021-02-06T13:40:35+01:00</time>
      </trkpt>
      <trkpt lat="43.83959" lon="5.24464">
        <ele>295.9</ele>
        <time>2021-02-06T13:40:56+01:00</time>
      </trkpt>
      <trkpt lat="43.83945" lon="5.24488">
        <ele>296.9</ele>
        <time>2021-02-06T13:41:19+01:00</time>
      </trkpt>
      <trkpt lat="43.83922" lon="5.24487">
        <ele>298.9</ele>
        <time>2021-02-06T13:42:14+01:00</time>
      </trkpt>
      <trkpt lat="43.839" lon="5.24476">
        <ele>298.8</ele>
        <time>2021-02-06T13:42:45+01:00</time>
      </trkpt>
      <trkpt lat="43.83877" lon="5.24479">
        <ele>298.9</ele>
        <time>2021-02-06T13:43:42+01:00</time>
      </trkpt>
      <trkpt lat="43.83855" lon="5.24479">
        <ele>298.8</ele>
        <time>2021-02-06T13:44:06+01:00</time>
      </trkpt>
      <trkpt lat="43.83832" lon="5.2448">
        <ele>298.8</ele>
        <time>2021-02-06T13:44:30+01:00</time>
      </trkpt>
      <trkpt lat="43.83809" lon="5.24483">
        <ele>298.7</ele>
        <time>2021-02-06T13:44:55+01:00</time>
      </trkpt>
      <trkpt lat="43.83787" lon="5.24484">
        <ele>298.6</ele>
        <time>2021-02-06T13:45:18+01:00</time>
      </trkpt>
      <trkpt lat="43.83766" lon="5.2447">
        <ele>298.3</ele>
        <time>2021-02-06T13:45:40+01:00</time>
      </trkpt>
      <trkpt lat="43.83765" lon="5.24439">
        <ele>298.3</ele>
        <time>2021-02-06T13:46:01+01:00</time>
      </trkpt>
      <trkpt lat="43.83765" lon="5.24407">
        <ele>298.1</ele>
        <time>2021-02-06T13:46:23+01:00</time>
      </trkpt>
      <trkpt lat="43.83742" lon="5.24415">
        <ele>298.8</ele>
        <time>2021-02-06T13:47:04+01:00</time>
      </trkpt>
      <trkpt lat="43.83719" lon="5.24423">
        <ele>298.3</ele>
        <time>2021-02-06T13:47:27+01:00</time>
      </trkpt>
      <trkpt lat="43.83697" lon="5.24428">
        <ele>297.9</ele>
        <time>2021-02-06T13:47:47+01:00</time>
      </trkpt>
      <trkpt lat="43.83685" lon="5.24455">
        <ele>298.4</ele>
        <time>2021-02-06T13:48:09+01:00</time>
      </trkpt>
      <trkpt lat="43.83666" lon="5.24474">
        <ele>299.1</ele>
        <time>2021-02-06T13:48:34+01:00</time>
      </trkpt>
      <trkpt lat="43.83648" lon="5.24492">
        <ele>300.4</ele>
        <time>2021-02-06T13:49:08+01:00</time>
      </trkpt>
      <trkpt lat="43.83627" lon="5.24506">
        <ele>301.6</ele>
        <time>2021-02-06T13:49:40+01:00</time>
      </trkpt>
      <trkpt lat="43.83607" lon="5.24522">
        <ele>302.7</ele>
        <time>2021-02-06T13:50:05+01:00</time>
      </trkpt>
      <trkpt lat="43.83585" lon="5.24522">
        <ele>303.5</ele>
        <time>2021-02-06T13:50:31+01:00</time>
      </trkpt>
      <trkpt lat="43.83566" lon="5.2454">
        <ele>304.4</ele>
        <time>2021-02-06T13:51:02+01:00</time>
      </trkpt>
      <trkpt lat="43.83551" lon="5.24564">
        <ele>305.3</ele>
        <time>2021-02-06T13:51:25+01:00</time>
      </trkpt>
      <trkpt lat="43.83531" lon="5.24579">
        <ele>306.2</ele>
        <time>2021-02-06T13:51:50+01:00</time>
      </trkpt>
      <trkpt lat="43.83511" lon="5.2456">
        <ele>306.2</ele>
        <time>2021-02-06T13:52:11+01:00</time>
      </trkpt>
      <trkpt lat="43.83498" lon="5.24535">
        <ele>306</ele>
        <time>2021-02-06T13:52:32+01:00</time>
      </trkpt>
      <trkpt lat="43.8348" lon="5.24513">
        <ele>306.3</ele>
        <time>2021-02-06T13:52:52+01:00</time>
      </trkpt>
      <trkpt lat="43.83463" lon="5.24492">
        <ele>306.5</ele>
        <time>2021-02-06T13:53:18+01:00</time>
      </trkpt>
      <trkpt lat="43.83445" lon="5.24472">
        <ele>306.6</ele>
        <time>2021-02-06T13:53:38+01:00</time>
      </trkpt>
      <trkpt lat="43.83422" lon="5.24472">
        <ele>307.8</ele>
        <time>2021-02-06T13:54:05+01:00</time>
      </trkpt>
      <trkpt lat="43.83406" lon="5.24497">
        <ele>308.8</ele>
        <time>2021-02-06T13:54:29+01:00</time>
      </trkpt>
      <trkpt lat="43.8339" lon="5.24519">
        <ele>309.6</ele>
        <time>2021-02-06T13:54:53+01:00</time>
      </trkpt>
      <trkpt lat="43.83377" lon="5.24545">
        <ele>310.9</ele>
        <time>2021-02-06T13:55:13+01:00</time>
      </trkpt>
      <trkpt lat="43.83363" lon="5.2457">
        <ele>312.5</ele>
        <time>2021-02-06T13:55:39+01:00</time>
      </trkpt>
      <trkpt lat="43.83345" lon="5.24592">
        <ele>314</ele>
        <time>2021-02-06T13:56:00+01:00</time>
      </trkpt>
      <trkpt lat="43.83329" lon="5.24616">
        <ele>315.2</ele>
        <time>2021-02-06T13:56:21+01:00</time>
      </trkpt>
      <trkpt lat="43.83313" lon="5.24638">
        <ele>316.3</ele>
        <time>2021-02-06T13:57:34+01:00</time>
      </trkpt>
      <trkpt lat="43.83291" lon="5.24634">
        <ele>316.4</ele>
        <time>2021-02-06T13:58:00+01:00</time>
      </trkpt>
      <trkpt lat="43.83295" lon="5.24666">
        <ele>318.3</ele>
        <time>2021-02-06T13:58:51+01:00</time>
      </trkpt>
      <trkpt lat="43.83278" lon="5.24686">
        <ele>319.4</ele>
        <time>2021-02-06T13:59:13+01:00</time>
      </trkpt>
      <trkpt lat="43.83259" lon="5.24702">
        <ele>320.5</ele>
        <time>2021-02-06T13:59:35+01:00</time>
      </trkpt>
      <trkpt lat="43.8324" lon="5.24721">
        <ele>321.3</ele>
        <time>2021-02-06T13:59:56+01:00</time>
      </trkpt>
      <trkpt lat="43.83222" lon="5.24743">
        <ele>321.8</ele>
        <time>2021-02-06T14:00:22+01:00</time>
      </trkpt>
      <trkpt lat="43.83206" lon="5.24766">
        <ele>322.6</ele>
        <time>2021-02-06T14:00:44+01:00</time>
      </trkpt>
      <trkpt lat="43.83186" lon="5.24782">
        <ele>323.5</ele>
        <time>2021-02-06T14:01:05+01:00</time>
      </trkpt>
      <trkpt lat="43.83164" lon="5.24791">
        <ele>324.5</ele>
        <time>2021-02-06T14:01:37+01:00</time>
      </trkpt>
      <trkpt lat="43.83144" lon="5.24804">
        <ele>325.5</ele>
        <time>2021-02-06T14:02:02+01:00</time>
      </trkpt>
      <trkpt lat="43.83122" lon="5.24813">
        <ele>326.3</ele>
        <time>2021-02-06T14:02:38+01:00</time>
      </trkpt>
      <trkpt lat="43.83113" lon="5.24843">
        <ele>327.9</ele>
        <time>2021-02-06T14:03:07+01:00</time>
      </trkpt>
      <trkpt lat="43.831" lon="5.2487">
        <ele>328.9</ele>
        <time>2021-02-06T14:03:42+01:00</time>
      </trkpt>
      <trkpt lat="43.83077" lon="5.24875">
        <ele>329.7</ele>
        <time>2021-02-06T14:04:39+01:00</time>
      </trkpt>
      <trkpt lat="43.83055" lon="5.24882">
        <ele>330.7</ele>
        <time>2021-02-06T14:05:01+01:00</time>
      </trkpt>
      <trkpt lat="43.83076" lon="5.24893">
        <ele>330.4</ele>
        <time>2021-02-06T14:05:54+01:00</time>
      </trkpt>
      <trkpt lat="43.83054" lon="5.24892">
        <ele>331.2</ele>
        <time>2021-02-06T14:12:14+01:00</time>
      </trkpt>
      <trkpt lat="43.83032" lon="5.24883">
        <ele>331.5</ele>
        <time>2021-02-06T14:12:36+01:00</time>
      </trkpt>
      <trkpt lat="43.83008" lon="5.24887">
        <ele>332.5</ele>
        <time>2021-02-06T14:13:01+01:00</time>
      </trkpt>
      <trkpt lat="43.82986" lon="5.24892">
        <ele>333.1</ele>
        <time>2021-02-06T14:13:22+01:00</time>
      </trkpt>
      <trkpt lat="43.82965" lon="5.24905">
        <ele>333.8</ele>
        <time>2021-02-06T14:13:50+01:00</time>
      </trkpt>
      <trkpt lat="43.82943" lon="5.24916">
        <ele>334.3</ele>
        <time>2021-02-06T14:14:12+01:00</time>
      </trkpt>
      <trkpt lat="43.82921" lon="5.24925">
        <ele>334.4</ele>
        <time>2021-02-06T14:14:33+01:00</time>
      </trkpt>
      <trkpt lat="43.82898" lon="5.24931">
        <ele>334.5</ele>
        <time>2021-02-06T14:14:54+01:00</time>
      </trkpt>
      <trkpt lat="43.82875" lon="5.24938">
        <ele>334.6</ele>
        <time>2021-02-06T14:15:21+01:00</time>
      </trkpt>
      <trkpt lat="43.82853" lon="5.24931">
        <ele>334</ele>
        <time>2021-02-06T14:15:53+01:00</time>
      </trkpt>
      <trkpt lat="43.82846" lon="5.24901">
        <ele>332.2</ele>
        <time>2021-02-06T14:16:37+01:00</time>
      </trkpt>
      <trkpt lat="43.82843" lon="5.24869">
        <ele>330.3</ele>
        <time>2021-02-06T14:16:56+01:00</time>
      </trkpt>
      <trkpt lat="43.82836" lon="5.24839">
        <ele>328.4</ele>
        <time>2021-02-06T14:17:14+01:00</time>
      </trkpt>
      <trkpt lat="43.82821" lon="5.24816">
        <ele>326.6</ele>
        <time>2021-02-06T14:17:53+01:00</time>
      </trkpt>
      <trkpt lat="43.82799" lon="5.24809">
        <ele>325.5</ele>
        <time>2021-02-06T14:18:11+01:00</time>
      </trkpt>
      <trkpt lat="43.82776" lon="5.24802">
        <ele>324.6</ele>
        <time>2021-02-06T14:18:31+01:00</time>
      </trkpt>
      <trkpt lat="43.82756" lon="5.24785">
        <ele>323.4</ele>
        <time>2021-02-06T14:18:52+01:00</time>
      </trkpt>
      <trkpt lat="43.82749" lon="5.24755">
        <ele>322.2</ele>
        <time>2021-02-06T14:19:09+01:00</time>
      </trkpt>
      <trkpt lat="43.82743" lon="5.24724">
        <ele>321.3</ele>
        <time>2021-02-06T14:19:30+01:00</time>
      </trkpt>
      <trkpt lat="43.8273" lon="5.24698">
        <ele>320.8</ele>
        <time>2021-02-06T14:19:49+01:00</time>
      </trkpt>
      <trkpt lat="43.8271" lon="5.24683">
        <ele>320.8</ele>
        <time>2021-02-06T14:20:09+01:00</time>
      </trkpt>
      <trkpt lat="43.82688" lon="5.24676">
        <ele>321</ele>
        <time>2021-02-06T14:20:28+01:00</time>
      </trkpt>
      <trkpt lat="43.82673" lon="5.2465">
        <ele>320.5</ele>
        <time>2021-02-06T14:22:05+01:00</time>
      </trkpt>
      <trkpt lat="43.82673" lon="5.24618">
        <ele>319.7</ele>
        <time>2021-02-06T14:22:31+01:00</time>
      </trkpt>
      <trkpt lat="43.82681" lon="5.24589">
        <ele>318.8</ele>
        <time>2021-02-06T14:22:49+01:00</time>
      </trkpt>
      <trkpt lat="43.82691" lon="5.24561">
        <ele>317.8</ele>
        <time>2021-02-06T14:23:09+01:00</time>
      </trkpt>
      <trkpt lat="43.82703" lon="5.24534">
        <ele>317.1</ele>
        <time>2021-02-06T14:23:29+01:00</time>
      </trkpt>
      <trkpt lat="43.82714" lon="5.24506">
        <ele>316.7</ele>
        <time>2021-02-06T14:23:49+01:00</time>
      </trkpt>
      <trkpt lat="43.82723" lon="5.24477">
        <ele>315.8</ele>
        <time>2021-02-06T14:24:12+01:00</time>
      </trkpt>
      <trkpt lat="43.82702" lon="5.24465">
        <ele>314.3</ele>
        <time>2021-02-06T14:24:42+01:00</time>
      </trkpt>
      <trkpt lat="43.8268" lon="5.24469">
        <ele>313.5</ele>
        <time>2021-02-06T14:25:09+01:00</time>
      </trkpt>
      <trkpt lat="43.82657" lon="5.24457">
        <ele>311.3</ele>
        <time>2021-02-06T14:25:28+01:00</time>
      </trkpt>
      <trkpt lat="43.8264" lon="5.24436">
        <ele>308</ele>
        <time>2021-02-06T14:26:02+01:00</time>
      </trkpt>
      <trkpt lat="43.8262" lon="5.24421">
        <ele>304.7</ele>
        <time>2021-02-06T14:26:39+01:00</time>
      </trkpt>
      <trkpt lat="43.82597" lon="5.24421">
        <ele>302.7</ele>
        <time>2021-02-06T14:27:27+01:00</time>
      </trkpt>
      <trkpt lat="43.82574" lon="5.24421">
        <ele>299</ele>
        <time>2021-02-06T14:27:49+01:00</time>
      </trkpt>
      <trkpt lat="43.82551" lon="5.24425">
        <ele>292.8</ele>
        <time>2021-02-06T14:28:13+01:00</time>
      </trkpt>
      <trkpt lat="43.82531" lon="5.2444">
        <ele>288.7</ele>
        <time>2021-02-06T14:28:35+01:00</time>
      </trkpt>
      <trkpt lat="43.82527" lon="5.24471">
        <ele>291.5</ele>
        <time>2021-02-06T14:29:00+01:00</time>
      </trkpt>
      <trkpt lat="43.82525" lon="5.24502">
        <ele>294.4</ele>
        <time>2021-02-06T14:29:20+01:00</time>
      </trkpt>
      <trkpt lat="43.82515" lon="5.24532">
        <ele>292.4</ele>
        <time>2021-02-06T14:29:42+01:00</time>
      </trkpt>
      <trkpt lat="43.82511" lon="5.24563">
        <ele>292</ele>
        <time>2021-02-06T14:30:05+01:00</time>
      </trkpt>
      <trkpt lat="43.82504" lon="5.24593">
        <ele>290.4</ele>
        <time>2021-02-06T14:30:24+01:00</time>
      </trkpt>
      <trkpt lat="43.82498" lon="5.24624">
        <ele>288.8</ele>
        <time>2021-02-06T14:30:51+01:00</time>
      </trkpt>
      <trkpt lat="43.82501" lon="5.24592">
        <ele>289.4</ele>
        <time>2021-02-06T14:33:50+01:00</time>
      </trkpt>
      <trkpt lat="43.82509" lon="5.24562">
        <ele>291.5</ele>
        <time>2021-02-06T14:34:20+01:00</time>
      </trkpt>
      <trkpt lat="43.82517" lon="5.24533">
        <ele>292.8</ele>
        <time>2021-02-06T14:34:42+01:00</time>
      </trkpt>
      <trkpt lat="43.82517" lon="5.24501">
        <ele>291.7</ele>
        <time>2021-02-06T14:35:12+01:00</time>
      </trkpt>
      <trkpt lat="43.82519" lon="5.2447">
        <ele>288.9</ele>
        <time>2021-02-06T14:35:36+01:00</time>
      </trkpt>
      <trkpt lat="43.82531" lon="5.24443">
        <ele>289.2</ele>
        <time>2021-02-06T14:35:59+01:00</time>
      </trkpt>
      <trkpt lat="43.82552" lon="5.2443">
        <ele>293.7</ele>
        <time>2021-02-06T14:36:28+01:00</time>
      </trkpt>
      <trkpt lat="43.82574" lon="5.24421">
        <ele>299</ele>
        <time>2021-02-06T14:36:54+01:00</time>
      </trkpt>
      <trkpt lat="43.82598" lon="5.24422">
        <ele>303</ele>
        <time>2021-02-06T14:37:21+01:00</time>
      </trkpt>
      <trkpt lat="43.8262" lon="5.24427">
        <ele>305.4</ele>
        <time>2021-02-06T14:38:00+01:00</time>
      </trkpt>
    </trkseg>
  </trk>
</gpx>